Time;durP1;ratioP1;P1;durP2;ratioP2;P2;SDS_P1;SDS_P2;PMS_P1;PMS_P2;Temp;Humidity;BMP_temperature;BMP_pressure;BME280_temperature;BME280_humidity;BME280_pressure;Samples;Min_cycle;Max_cycle;Signal;HPM_P1;HPM_P2
2023/10/22 00:02:25;;;;;;;4.10;1.00;;;;;;;9.69;100.00;99428.72;5214548;28;20163;-71
2023/10/22 00:04:56;;;;;;;2.28;1.00;;;;;;;9.71;100.00;99430.34;5214047;28;20021;-72
2023/10/22 00:07:26;;;;;;;1.08;0.70;;;;;;;9.69;100.00;99433.94;5214592;28;20044;-72
2023/10/22 00:09:56;;;;;;;2.38;1.08;;;;;;;9.68;100.00;99437.47;5216415;28;20025;-72
2023/10/22 00:12:27;;;;;;;4.70;0.90;;;;;;;9.65;100.00;99438.47;5214799;28;20025;-72
2023/10/22 00:14:57;;;;;;;1.35;0.80;;;;;;;9.67;100.00;99441.00;5197981;28;20138;-72
2023/10/22 00:17:28;;;;;;;2.75;1.00;;;;;;;9.63;100.00;99444.69;5202160;28;20021;-71
2023/10/22 00:19:58;;;;;;;3.33;1.05;;;;;;;9.59;100.00;99445.75;5213607;28;20489;-72
2023/10/22 00:22:28;;;;;;;2.13;0.93;;;;;;;9.57;100.00;99443.22;5216804;28;20500;-71
2023/10/22 00:24:59;;;;;;;2.72;1.00;;;;;;;9.56;100.00;99441.53;5212468;28;20029;-72
2023/10/22 00:27:29;;;;;;;5.47;1.10;;;;;;;9.53;100.00;99441.69;5215784;28;20021;-71
2023/10/22 00:30:00;;;;;;;6.07;0.95;;;;;;;9.56;100.00;99453.72;5218590;28;20033;-72
2023/10/22 00:32:32;;;;;;;6.47;1.13;;;;;;;9.58;100.00;99444.06;5216793;28;20024;-72
2023/10/22 00:35:02;;;;;;;3.58;1.02;;;;;;;9.57;100.00;99455.41;5198005;28;20029;-72
2023/10/22 00:37:32;;;;;;;7.15;1.65;;;;;;;9.54;100.00;99461.66;5219411;28;20498;-72
2023/10/22 00:40:03;;;;;;;3.17;1.08;;;;;;;9.51;100.00;99459.16;5214888;28;20025;-71
2023/10/22 00:42:34;;;;;;;4.50;1.50;;;;;;;9.54;100.00;99452.97;5202905;28;20566;-72
2023/10/22 00:45:05;;;;;;;2.60;1.30;;;;;;;9.48;100.00;99471.53;5198315;28;20119;-72
2023/10/22 00:47:36;;;;;;;5.05;1.35;;;;;;;9.45;100.00;99461.25;5208959;28;20255;-72
2023/10/22 00:50:07;;;;;;;3.10;1.00;;;;;;;9.49;100.00;99460.16;5193570;28;20030;-72
2023/10/22 00:52:37;;;;;;;3.33;1.02;;;;;;;9.45;100.00;99463.84;5216504;28;20024;-73
2023/10/22 00:55:11;;;;;;;3.63;1.08;;;;;;;9.41;100.00;99463.16;5215298;28;20025;-72
2023/10/22 00:57:42;;;;;;;4.85;1.13;;;;;;;9.44;100.00;99464.75;5211924;28;20474;-72
2023/10/22 01:00:13;;;;;;;4.45;1.58;;;;;;;9.47;100.00;99464.63;5199348;28;20029;-72
2023/10/22 01:02:43;;;;;;;4.60;1.02;;;;;;;9.45;100.00;99469.91;5206322;28;20986;-73
2023/10/22 01:05:14;;;;;;;7.15;1.15;;;;;;;9.46;100.00;99474.19;5211418;28;20421;-72
2023/10/22 01:07:47;;;;;;;2.53;1.10;;;;;;;9.47;100.00;99475.06;5195475;28;20033;-72
2023/10/22 01:10:17;;;;;;;5.40;1.00;;;;;;;9.47;100.00;99473.28;5214875;28;20024;-72
2023/10/22 01:12:47;;;;;;;3.35;1.10;;;;;;;9.47;100.00;99467.22;5243047;22;20044;-73
2023/10/22 01:15:17;;;;;;;2.22;1.10;;;;;;;9.42;100.00;99449.19;5248376;28;20039;-73
2023/10/22 01:17:48;;;;;;;3.40;1.20;;;;;;;9.39;100.00;99445.88;5248610;28;20084;-77
2023/10/22 01:20:18;;;;;;;3.78;1.30;;;;;;;9.36;100.00;99459.94;5255587;28;20037;-77
2023/10/22 01:22:49;;;;;;;5.88;1.40;;;;;;;9.37;100.00;99452.94;5249365;28;20036;-77
2023/10/22 01:25:19;;;;;;;1.63;1.00;;;;;;;9.34;100.00;99447.88;5251300;28;20493;-77
2023/10/22 01:27:50;;;;;;;5.05;1.20;;;;;;;9.30;100.00;99452.38;5253413;28;20055;-77
2023/10/22 01:30:20;;;;;;;2.47;0.93;;;;;;;9.33;100.00;99441.81;5247712;28;20073;-73
2023/10/22 01:32:50;;;;;;;2.58;1.10;;;;;;;9.27;100.00;99449.06;5248297;28;20664;-77
2023/10/22 01:35:21;;;;;;;2.70;1.13;;;;;;;9.22;100.00;99444.09;5253039;28;20080;-76
2023/10/22 01:37:51;;;;;;;2.60;0.90;;;;;;;9.22;100.00;99440.63;5248686;28;20024;-77
2023/10/22 01:40:21;;;;;;;2.10;1.00;;;;;;;9.16;100.00;99444.38;5237783;28;20477;-75
2023/10/22 01:42:52;;;;;;;2.80;1.25;;;;;;;9.17;100.00;99435.63;5245926;28;20028;-76
2023/10/22 01:45:24;;;;;;;2.58;1.10;;;;;;;9.19;100.00;99440.78;5230924;28;20477;-77
2023/10/22 01:47:54;;;;;;;4.30;1.27;;;;;;;9.16;100.00;99441.78;5233699;28;20531;-73
2023/10/22 01:50:24;;;;;;;2.50;0.90;;;;;;;9.11;100.00;99440.34;5242765;28;20033;-74
2023/10/22 01:52:54;;;;;;;5.18;1.10;;;;;;;9.09;100.00;99449.97;5246129;28;20032;-73
2023/10/22 01:55:25;;;;;;;4.20;1.10;;;;;;;9.14;100.00;99445.41;5232537;28;20243;-77
2023/10/22 01:57:55;;;;;;;2.72;1.00;;;;;;;9.16;100.00;99448.78;5253767;28;20108;-74
2023/10/22 02:00:25;;;;;;;3.63;1.20;;;;;;;9.19;100.00;99444.25;5250875;28;20418;-77
2023/10/22 02:02:56;;;;;;;1.92;0.90;;;;;;;9.13;100.00;99452.34;5246611;28;20020;-73
2023/10/22 02:05:26;;;;;;;2.28;0.93;;;;;;;9.15;100.00;99449.69;5251159;28;20030;-77
2023/10/22 02:07:57;;;;;;;2.67;0.95;;;;;;;9.10;100.00;99453.44;5253082;28;20111;-74
2023/10/22 02:10:27;;;;;;;5.10;1.00;;;;;;;9.16;100.00;99451.38;5248614;28;20036;-76
2023/10/22 02:12:58;;;;;;;4.68;0.88;;;;;;;9.16;100.00;99441.78;5248673;28;20023;-75
2023/10/22 02:15:28;;;;;;;1.20;0.70;;;;;;;9.17;100.00;99432.22;5254818;28;20055;-76
2023/10/22 02:17:58;;;;;;;2.30;0.73;;;;;;;9.13;100.00;99434.09;5230335;28;20398;-76
2023/10/22 02:20:29;;;;;;;4.43;1.02;;;;;;;9.12;100.00;99434.19;5241933;28;20034;-76
2023/10/22 02:23:00;;;;;;;1.50;0.90;;;;;;;9.10;100.00;99440.38;5246009;28;20100;-77
2023/10/22 02:25:31;;;;;;;2.83;1.00;;;;;;;9.13;100.00;99435.88;5242718;28;20032;-76
2023/10/22 02:28:01;;;;;;;4.38;1.10;;;;;;;9.11;100.00;99440.34;5250386;28;20031;-77
2023/10/22 02:30:31;;;;;;;2.38;0.80;;;;;;;9.14;100.00;99450.59;5251338;28;20398;-76
2023/10/22 02:33:02;;;;;;;2.45;0.90;;;;;;;9.23;100.00;99455.38;5233786;28;20101;-77
2023/10/22 02:35:32;;;;;;;7.32;1.00;;;;;;;9.18;100.00;99452.97;5225176;28;20516;-77
2023/10/22 02:38:02;;;;;;;2.88;0.80;;;;;;;9.20;100.00;99451.16;5252236;28;20032;-77
2023/10/22 02:40:36;;;;;;;2.85;0.70;;;;;;;9.22;100.00;99456.28;5250892;28;20164;-76
2023/10/22 02:43:07;;;;;;;2.80;0.90;;;;;;;9.21;100.00;99457.19;5255276;28;20076;-77
2023/10/22 02:45:37;;;;;;;1.95;0.65;;;;;;;9.24;100.00;99451.84;5239043;28;20036;-76
2023/10/22 02:48:07;;;;;;;3.25;0.80;;;;;;;9.25;100.00;99459.59;5254249;28;20036;-77
2023/10/22 02:50:38;;;;;;;2.67;0.77;;;;;;;9.21;100.00;99459.81;5251562;28;20063;-77
2023/10/22 02:53:09;;;;;;;4.03;0.90;;;;;;;9.23;100.00;99450.16;5236079;28;20109;-76
2023/10/22 02:55:40;;;;;;;2.45;0.90;;;;;;;9.23;100.00;99456.22;5247082;28;20040;-74
2023/10/22 02:58:10;;;;;;;3.88;0.80;;;;;;;9.18;100.00;99452.13;5255864;28;20023;-72
2023/10/22 03:00:40;;;;;;;6.07;0.88;;;;;;;9.13;100.00;99446.31;5252738;28;20393;-74
2023/10/22 03:03:10;;;;;;;3.75;0.80;;;;;;;9.09;100.00;99442.13;5240570;28;20431;-72
2023/10/22 03:05:41;;;;;;;3.15;0.90;;;;;;;9.11;100.00;99442.94;5247771;28;20063;-74
2023/10/22 03:08:11;;;;;;;4.38;1.40;;;;;;;9.14;100.00;99445.41;5249866;28;20071;-74
2023/10/22 03:10:41;;;;;;;2.30;1.00;;;;;;;9.19;100.00;99448.63;5250215;28;20991;-72
2023/10/22 03:13:12;;;;;;;4.25;0.90;;;;;;;9.19;100.00;99451.22;5250441;28;20123;-74
2023/10/22 03:15:42;;;;;;;1.75;0.95;;;;;;;9.23;100.00;99455.38;5234318;28;20040;-74
2023/10/22 03:18:13;;;;;;;6.10;0.93;;;;;;;9.16;100.00;99438.34;5251299;28;20147;-74
2023/10/22 03:20:43;;;;;;;6.32;0.90;;;;;;;9.14;100.00;99435.78;5246970;28;20532;-74
2023/10/22 03:23:14;;;;;;;5.03;0.98;;;;;;;9.16;100.00;99438.34;5237508;28;20023;-74
2023/10/22 03:25:45;;;;;;;4.85;1.10;;;;;;;9.11;100.00;99442.06;5244187;28;20464;-74
2023/10/22 03:28:15;;;;;;;2.10;1.00;;;;;;;9.11;100.00;99448.16;5247630;28;20403;-74
2023/10/22 03:30:45;;;;;;;3.05;1.10;;;;;;;9.13;100.00;99455.88;5244002;28;20043;-74
2023/10/22 03:33:16;;;;;;;5.25;0.80;;;;;;;9.15;100.00;99457.50;5248569;28;20504;-74
2023/10/22 03:35:47;;;;;;;2.17;0.80;;;;;;;9.19;100.00;99457.28;5245331;28;20038;-74
2023/10/22 03:38:18;;;;;;;4.32;0.90;;;;;;;9.21;100.00;99457.19;5249247;28;20102;-72
2023/10/22 03:40:49;;;;;;;3.17;1.10;;;;;;;9.21;100.00;99452.00;5228768;28;20028;-73
2023/10/22 03:43:19;;;;;;;2.13;0.73;;;;;;;9.21;100.00;99458.06;5245761;28;20024;-74
2023/10/22 03:45:50;;;;;;;3.20;0.77;;;;;;;9.21;100.00;99454.59;5245893;28;20436;-74
2023/10/22 03:48:21;;;;;;;4.40;0.77;;;;;;;9.20;100.00;99468.53;5244524;28;20051;-74
2023/10/22 03:50:52;;;;;;;3.97;0.65;;;;;;;9.18;100.00;99468.59;5250769;28;20028;-75
2023/10/22 03:53:22;;;;;;;2.38;0.77;;;;;;;9.17;100.00;99464.31;5252549;28;20069;-72
2023/10/22 03:55:52;;;;;;;3.92;0.73;;;;;;;9.19;100.00;99454.69;5252359;28;20409;-74
2023/10/22 03:58:25;;;;;;;2.40;0.90;;;;;;;9.18;100.00;99463.41;5254327;28;20112;-74
2023/10/22 04:00:55;;;;;;;1.73;0.73;;;;;;;9.17;100.00;99469.53;5234688;28;20537;-75
2023/10/22 04:03:25;;;;;;;2.28;0.60;;;;;;;9.12;100.00;99475.03;5254261;28;20027;-72
2023/10/22 04:05:57;;;;;;;3.92;0.90;;;;;;;9.05;100.00;99481.47;5255595;28;20028;-74
2023/10/22 04:08:28;;;;;;;2.83;0.77;;;;;;;9.08;100.00;99481.31;5251609;28;20441;-74
2023/10/22 04:10:58;;;;;;;1.60;0.70;;;;;;;9.01;100.00;99478.16;5252666;28;20023;-74
2023/10/22 04:13:28;;;;;;;1.20;0.57;;;;;;;8.92;100.00;99483.78;5254157;28;20393;-74
2023/10/22 04:15:59;;;;;;;2.08;0.60;;;;;;;8.92;100.00;99486.38;5253870;28;20064;-75
2023/10/22 04:18:29;;;;;;;2.45;0.55;;;;;;;8.87;100.00;99488.38;5252762;28;20036;-71
2023/10/22 04:21:00;;;;;;;2.00;0.70;;;;;;;8.87;100.00;99483.16;5253683;28;20047;-73
2023/10/22 04:23:30;;;;;;;4.97;0.98;;;;;;;8.95;100.00;99478.44;5252736;28;20017;-74
2023/10/22 04:26:00;;;;;;;2.22;0.57;;;;;;;8.95;100.00;99473.25;5248518;28;20027;-74
2023/10/22 04:28:31;;;;;;;2.05;0.60;;;;;;;8.96;100.00;99482.75;5254168;28;20032;-71
2023/10/22 04:31:01;;;;;;;7.55;1.00;;;;;;;9.00;100.00;99480.81;5256080;28;20201;-75
2023/10/22 04:33:31;;;;;;;0.93;0.50;;;;;;;8.99;100.00;99476.53;5252841;28;20089;-72
2023/10/22 04:36:03;;;;;;;4.75;0.57;;;;;;;9.04;100.00;99474.56;5254001;28;20396;-74
2023/10/22 04:38:33;;;;;;;2.08;0.50;;;;;;;9.13;100.00;99479.34;5233800;28;20019;-75
2023/10/22 04:41:09;;;;;;;1.27;0.40;;;;;;;9.02;100.00;99474.63;5252908;28;20020;-74
2023/10/22 04:43:39;;;;;;;1.23;0.50;;;;;;;9.04;100.00;99482.38;5247959;28;20043;-75
2023/10/22 04:46:10;;;;;;;3.85;0.70;;;;;;;9.13;100.00;99486.22;5235284;28;20477;-74
2023/10/22 04:48:40;;;;;;;2.75;0.70;;;;;;;9.24;100.00;99489.19;5251880;28;20032;-75
2023/10/22 04:51:11;;;;;;;2.90;0.57;;;;;;;9.35;100.00;99489.50;5235718;28;20035;-74
2023/10/22 04:53:41;;;;;;;4.03;0.73;;;;;;;9.39;100.00;99492.81;5251429;28;20032;-74
2023/10/22 04:56:11;;;;;;;1.80;0.57;;;;;;;9.32;100.00;99494.88;5254353;28;20405;-75
2023/10/22 04:58:41;;;;;;;5.53;0.63;;;;;;;9.48;100.00;99487.16;5249060;28;20040;-75
2023/10/22 05:01:12;;;;;;;4.35;0.68;;;;;;;9.49;100.00;99486.25;5251069;28;20137;-74
2023/10/22 05:03:42;;;;;;;6.30;0.60;;;;;;;9.51;100.00;99497.44;5246919;28;20055;-74
2023/10/22 05:06:12;;;;;;;2.10;0.75;;;;;;;9.43;100.00;99496.97;5250556;28;20063;-74
2023/10/22 05:08:43;;;;;;;1.45;0.32;;;;;;;9.42;100.00;99495.28;5251904;28;20754;-75
2023/10/22 05:11:14;;;;;;;7.55;1.05;;;;;;;9.41;100.00;99497.03;5250224;28;20024;-72
2023/10/22 05:13:45;;;;;;;2.22;0.70;;;;;;;9.41;100.00;99502.25;5248661;28;20401;-75
2023/10/22 05:16:16;;;;;;;1.15;0.38;;;;;;;9.41;100.00;99520.50;5251692;28;20138;-74
2023/10/22 05:18:46;;;;;;;3.58;0.60;;;;;;;9.37;100.00;99511.16;5247716;28;20197;-74
2023/10/22 05:21:16;;;;;;;2.78;0.60;;;;;;;9.36;100.00;99503.41;5250986;28;20024;-74
2023/10/22 05:23:46;;;;;;;3.28;0.60;;;;;;;9.30;100.00;99519.34;5247425;28;20032;-74
2023/10/22 05:26:17;;;;;;;1.00;0.50;;;;;;;9.27;100.00;99524.66;5245602;28;20032;-70
2023/10/22 05:28:47;;;;;;;1.48;0.40;;;;;;;9.27;100.00;99524.66;5249634;28;20489;-74
2023/10/22 05:31:19;;;;;;;1.35;0.43;;;;;;;9.25;100.00;99526.50;5251562;28;20465;-71
2023/10/22 05:33:50;;;;;;;3.78;0.60;;;;;;;9.20;100.00;99538.91;5249577;28;20019;-74
2023/10/22 05:36:21;;;;;;;2.72;0.47;;;;;;;9.14;100.00;99528.78;5252260;28;20027;-75
2023/10/22 05:38:51;;;;;;;1.90;0.40;;;;;;;9.08;100.00;99539.47;5249525;28;20051;-75
2023/10/22 05:41:23;;;;;;;3.30;0.75;;;;;;;9.07;100.00;99545.63;5251341;28;20028;-74
2023/10/22 05:44:01;;;;;;;2.65;0.45;;;;;;;9.08;100.00;99544.69;5249876;28;20021;-75
2023/10/22 05:46:33;;;;;;;2.72;0.60;;;;;;;9.10;100.00;99542.03;5251577;28;20051;-72
2023/10/22 05:49:03;;;;;;;5.10;0.60;;;;;;;9.24;100.00;99537.84;5249937;28;20108;-75
2023/10/22 05:51:34;;;;;;;4.38;0.70;;;;;;;9.23;100.00;99539.63;5232244;28;20110;-71
2023/10/22 05:54:04;;;;;;;5.07;0.80;;;;;;;9.20;100.00;99541.53;5249496;28;20501;-74
2023/10/22 05:56:35;;;;;;;3.70;0.80;;;;;;;9.18;100.00;99543.38;5251721;28;20038;-75
2023/10/22 05:59:08;;;;;;;4.03;0.52;;;;;;;9.28;100.00;99555.06;5251015;28;20031;-74
2023/10/22 06:01:41;;;;;;;5.65;0.65;;;;;;;9.27;100.00;99556.81;5249438;28;20411;-74
2023/10/22 06:04:11;;;;;;;3.28;0.80;;;;;;;9.50;100.00;99555.75;5252543;28;20424;-74
2023/10/22 06:06:42;;;;;;;4.18;0.60;;;;;;;9.53;100.00;99568.63;5248910;28;20051;-74
2023/10/22 06:09:12;;;;;;;5.78;0.82;;;;;;;9.52;100.00;99572.16;5251090;28;20035;-74
2023/10/22 06:11:42;;;;;;;2.97;0.40;;;;;;;9.56;100.00;99584.13;5248572;28;20032;-74
2023/10/22 06:14:12;;;;;;;5.63;0.85;;;;;;;9.52;100.00;99591.25;5252908;28;20027;-75
2023/10/22 06:16:43;;;;;;;2.53;0.68;;;;;;;9.58;100.00;99593.59;5250283;28;20055;-75
2023/10/22 06:19:13;;;;;;;3.25;0.60;;;;;;;9.57;100.00;99583.22;5248842;28;20506;-75
2023/10/22 06:21:43;;;;;;;2.22;0.60;;;;;;;9.59;100.00;99577.00;5248269;28;20039;-74
2023/10/22 06:24:13;;;;;;;4.15;0.60;;;;;;;9.63;100.00;99588.16;5250082;28;20020;-74
2023/10/22 06:26:44;;;;;;;3.05;0.80;;;;;;;9.71;100.00;99594.69;5248279;28;20075;-74
2023/10/22 06:29:14;;;;;;;4.22;0.90;;;;;;;9.76;100.00;99594.47;5251085;28;20016;-74
2023/10/22 06:31:44;;;;;;;3.90;0.68;;;;;;;9.69;100.00;99587.84;5248634;28;20028;-74
2023/10/22 06:34:15;;;;;;;4.03;0.88;;;;;;;9.81;100.00;99600.31;5251590;28;20096;-74
2023/10/22 06:36:45;;;;;;;3.97;0.60;;;;;;;9.93;100.00;99604.94;5238055;28;20035;-75
2023/10/22 06:39:15;;;;;;;2.13;0.50;;;;;;;9.92;100.00;99603.25;5234814;28;20033;-75
2023/10/22 06:41:46;;;;;;;3.78;1.05;;;;;;;9.94;100.00;99596.19;5247202;28;20032;-72
2023/10/22 06:44:16;;;;;;;2.67;0.47;;;;;;;10.04;100.00;99602.69;5250950;28;20020;-74
2023/10/22 06:46:46;;;;;;;4.15;0.70;;;;;;;10.24;100.00;99608.63;5246593;28;20547;-74
2023/10/22 06:49:17;;;;;;;3.45;0.60;;;;;;;10.39;100.00;99607.00;5250213;28;20078;-73
2023/10/22 06:51:47;;;;;;;3.90;0.68;;;;;;;10.48;100.00;99604.78;5245835;28;20126;-74
2023/10/22 06:54:17;;;;;;;2.67;0.60;;;;;;;10.70;100.00;99604.53;5246798;28;20493;-72
2023/10/22 06:56:47;;;;;;;4.63;0.70;;;;;;;11.01;100.00;99604.63;5250129;28;20031;-75
2023/10/22 06:59:18;;;;;;;4.97;0.95;;;;;;;11.22;100.00;99607.78;5247692;28;20161;-75
2023/10/22 07:01:49;;;;;;;5.03;0.50;;;;;;;11.50;100.00;99600.16;5243852;28;20429;-76
2023/10/22 07:04:19;;;;;;;3.97;0.85;;;;;;;11.73;100.00;99591.03;5248360;28;20027;-75
2023/10/22 07:06:49;;;;;;;4.43;0.85;;;;;;;12.05;100.00;99593.53;5244864;28;20027;-75
2023/10/22 07:09:20;;;;;;;3.13;0.45;;;;;;;12.17;100.00;99592.84;5246624;28;20066;-75
2023/10/22 07:11:50;;;;;;;2.00;0.50;;;;;;;12.35;100.00;99602.25;5247613;28;20024;-76
2023/10/22 07:14:21;;;;;;;3.45;0.80;;;;;;;12.55;100.00;99594.06;5252269;28;20107;-75
2023/10/22 07:16:51;;;;;;;4.10;0.65;;;;;;;12.67;100.00;99588.06;5249136;28;20073;-76
2023/10/22 07:19:21;;;;;;;2.97;0.60;;;;;;;12.76;100.00;99599.78;5250149;28;20035;-75
2023/10/22 07:21:51;;;;;;;1.90;0.43;;;;;;;12.82;100.00;99610.75;5230970;28;20028;-74
2023/10/22 07:24:22;;;;;;;2.88;0.50;;;;;;;12.98;100.00;99622.03;5242143;28;20023;-74
2023/10/22 07:26:52;;;;;;;2.97;0.68;;;;;;;13.10;100.00;99624.75;5249192;28;20067;-74
2023/10/22 07:29:23;;;;;;;5.68;0.73;;;;;;;13.24;100.00;99618.69;5250896;28;20031;-75
2023/10/22 07:31:54;;;;;;;2.10;0.38;;;;;;;13.83;99.23;99619.25;5250400;28;20465;-75
2023/10/22 07:34:26;;;;;;;3.20;0.85;;;;;;;14.87;93.62;99629.75;5250296;28;20023;-73
2023/10/22 07:36:57;;;;;;;3.83;0.60;;;;;;;15.46;89.28;99623.03;5247585;28;20255;-75
2023/10/22 07:39:27;;;;;;;2.70;0.40;;;;;;;15.97;85.60;99624.56;5244684;28;20063;-72
2023/10/22 07:41:59;;;;;;;5.72;0.65;;;;;;;16.09;86.46;99632.44;5244983;28;20047;-73
2023/10/22 07:44:29;;;;;;;3.25;0.52;;;;;;;16.60;83.90;99633.06;5232561;28;20028;-74
2023/10/22 07:46:59;;;;;;;2.50;0.30;;;;;;;16.13;84.21;99644.44;5239391;28;20362;-75
2023/10/22 07:49:30;;;;;;;3.92;0.95;;;;;;;16.16;84.77;99644.22;5232522;28;20054;-73
2023/10/22 07:52:00;;;;;;;1.42;0.47;;;;;;;15.74;85.99;99652.56;5244304;28;20383;-76
2023/10/22 07:54:30;;;;;;;4.82;0.63;;;;;;;17.09;82.71;99642.41;5247479;28;20034;-73
2023/10/22 07:57:01;;;;;;;3.28;0.63;;;;;;;18.29;77.09;99636.25;5249185;28;20117;-76
2023/10/22 07:59:31;;;;;;;2.55;0.52;;;;;;;19.50;76.24;99643.50;5248376;28;20417;-75
2023/10/22 08:02:01;;;;;;;1.40;0.40;;;;;;;20.21;72.36;99633.56;5244751;28;20024;-76
2023/10/22 08:04:31;;;;;;;4.93;0.53;;;;;;;20.57;70.13;99640.00;5244679;28;20351;-76
2023/10/22 08:07:02;;;;;;;3.83;0.50;;;;;;;19.93;68.87;99641.44;5241991;28;20297;-76
2023/10/22 08:09:32;;;;;;;2.40;0.50;;;;;;;17.86;74.82;99653.03;5239426;28;20027;-75
2023/10/22 08:12:03;;;;;;;2.03;0.82;;;;;;;17.52;76.32;99656.66;5239732;28;20458;-76
2023/10/22 08:14:33;;;;;;;5.18;0.80;;;;;;;17.44;78.92;99653.75;5224130;28;20432;-74
2023/10/22 08:17:03;;;;;;;1.15;0.40;;;;;;;16.94;80.05;99659.44;5237814;28;20434;-76
2023/10/22 08:19:34;;;;;;;1.77;0.47;;;;;;;18.10;77.05;99657.19;5219680;28;20158;-73
2023/10/22 08:22:04;;;;;;;4.05;0.55;;;;;;;18.80;74.80;99676.94;5236044;28;20124;-76
2023/10/22 08:24:34;;;;;;;1.77;0.65;;;;;;;18.98;75.57;99668.28;5237974;28;20430;-75
2023/10/22 08:27:05;;;;;;;2.92;0.60;;;;;;;19.36;74.96;99668.56;5242346;28;20115;-75
2023/10/22 08:29:37;;;;;;;3.88;0.70;;;;;;;18.46;72.69;99675.38;5246631;28;20024;-74
2023/10/22 08:32:07;;;;;;;1.92;0.70;;;;;;;18.28;75.69;99678.69;5237870;28;20024;-75
2023/10/22 08:34:38;;;;;;;2.53;0.50;;;;;;;18.33;73.87;99682.63;5246449;28;20509;-76
2023/10/22 08:37:08;;;;;;;3.60;0.80;;;;;;;17.98;77.36;99681.97;5243742;28;20621;-74
2023/10/22 08:39:38;;;;;;;2.05;0.40;;;;;;;17.21;79.06;99692.50;5237518;28;20094;-76
2023/10/22 08:42:16;;;;;;;4.80;0.60;;;;;;;16.84;80.61;99698.84;5221557;28;20032;-76
2023/10/22 08:44:48;;;;;;;4.90;0.63;;;;;;;16.42;83.55;99697.72;5237458;28;20289;-76
2023/10/22 08:47:19;;;;;;;3.17;0.57;;;;;;;16.22;84.78;99700.94;5234803;28;20086;-73
2023/10/22 08:49:52;;;;;;;3.58;0.55;;;;;;;15.91;85.97;99698.81;5239198;28;20040;-75
2023/10/22 08:52:23;;;;;;;4.32;0.85;;;;;;;15.84;86.68;99701.03;5230933;28;20460;-75
2023/10/22 08:54:53;;;;;;;2.90;0.75;;;;;;;15.88;86.78;99701.69;5251420;28;20020;-75
2023/10/22 08:57:24;;;;;;;3.10;0.50;;;;;;;15.62;88.13;99692.97;5256958;28;20024;-73
2023/10/22 08:59:55;;;;;;;3.55;0.65;;;;;;;15.66;87.66;99698.84;5257560;28;20039;-75
2023/10/22 09:02:28;;;;;;;2.70;0.70;;;;;;;15.68;88.75;99703.06;5256775;28;20508;-74
2023/10/22 09:04:59;;;;;;;3.25;0.60;;;;;;;15.57;88.29;99710.88;5255954;28;20478;-74
2023/10/22 09:07:58;;;;;;;1.80;0.45;;;;;;;15.58;88.73;99709.94;5257003;28;20081;-72
2023/10/22 09:10:32;;;;;;;5.68;0.63;;;;;;;15.88;88.67;99714.84;5249936;28;20035;-76
2023/10/22 09:13:23;;;;;;;4.40;0.57;;;;;;;16.49;87.33;99717.41;5256270;28;20043;-75
2023/10/22 09:15:54;;;;;;;3.80;0.60;;;;;;;16.30;87.01;99711.75;5256564;28;20044;-74
2023/10/22 09:18:24;;;;;;;1.45;0.40;;;;;;;15.99;88.08;99721.03;5253201;28;20390;-74
2023/10/22 09:21:06;;;;;;;3.97;0.70;;;;;;;15.75;87.04;99714.03;5250714;28;20032;-78
2023/10/22 09:23:36;;;;;;;5.40;0.73;;;;;;;16.16;86.86;99709.28;5243863;28;20025;-77
2023/10/22 09:26:08;;;;;;;3.25;0.82;;;;;;;16.40;86.41;99716.28;5240242;28;20024;-76
2023/10/22 09:28:38;;;;;;;6.38;1.30;;;;;;;16.25;86.55;99713.91;5230971;28;20055;-75
2023/10/22 09:31:08;;;;;;;3.55;0.80;;;;;;;16.59;88.01;99707.88;5221001;28;20029;-79
2023/10/22 09:33:41;;;;;;;3.17;0.70;;;;;;;16.37;86.18;99713.88;5247499;28;20070;-78
2023/10/22 09:36:12;;;;;;;2.25;0.40;;;;;;;16.64;85.93;99722.41;5245657;28;20508;-78
2023/10/22 09:38:42;;;;;;;1.83;0.47;;;;;;;16.79;85.35;99722.13;5246572;28;20031;-75
2023/10/22 09:41:34;;;;;;;3.53;0.70;;;;;;;16.49;85.23;99728.81;5228023;28;20032;-75
2023/10/22 09:44:04;;;;;;;3.00;0.90;;;;;;;16.24;86.08;99728.88;5242173;28;20032;-74
2023/10/22 09:46:35;;;;;;;2.40;0.50;;;;;;;16.14;86.70;99727.00;5251515;28;20039;-72
2023/10/22 09:49:09;;;;;;;1.17;0.40;;;;;;;16.05;87.75;99731.13;5252738;28;20028;-73
2023/10/22 09:51:40;;;;;;;3.38;0.68;;;;;;;15.90;87.96;99753.31;5247142;28;20032;-73
2023/10/22 09:54:11;;;;;;;2.50;0.55;;;;;;;15.85;88.43;99750.16;5247017;28;20027;-75
2023/10/22 09:56:51;;;;;;;4.15;0.77;;;;;;;15.66;89.17;99752.38;5231382;28;20043;-75
2023/10/22 09:59:25;;;;;;;1.77;0.65;;;;;;;15.70;90.10;99751.22;5226931;28;20067;-76
2023/10/22 10:01:55;;;;;;;1.98;0.68;;;;;;;15.52;90.99;99749.84;5249475;28;20126;-75
2023/10/22 10:04:26;;;;;;;3.83;0.88;;;;;;;15.64;91.63;99751.66;5251232;28;20034;-76
2023/10/22 10:07:00;;;;;;;2.28;0.73;;;;;;;15.68;90.56;99753.13;5252473;28;20507;-76
2023/10/22 10:09:33;;;;;;;1.85;0.70;;;;;;;15.54;90.41;99757.66;5244759;28;20016;-76
2023/10/22 10:12:06;;;;;;;2.47;0.50;;;;;;;15.56;89.40;99755.78;5251790;28;20497;-76
2023/10/22 10:14:36;;;;;;;2.17;0.50;;;;;;;15.69;89.97;99765.34;5248065;28;20658;-74
2023/10/22 10:17:08;;;;;;;0.65;0.40;;;;;;;15.81;91.44;99763.63;5249886;28;20032;-76
2023/10/22 10:19:39;;;;;;;2.33;0.68;;;;;;;15.55;89.52;99759.34;5252333;28;20919;-75
2023/10/22 10:22:36;;;;;;;2.88;0.52;;;;;;;15.51;90.55;99763.97;5249893;28;20039;-76
2023/10/22 10:25:31;;;;;;;3.33;0.60;;;;;;;15.50;90.11;99757.03;5246902;28;20497;-74
2023/10/22 10:28:05;;;;;;;1.98;0.43;;;;;;;15.66;90.11;99747.13;5233161;28;20589;-75
2023/10/22 10:30:36;;;;;;;3.88;0.85;;;;;;;15.61;89.56;99757.16;5240404;28;20041;-74
2023/10/22 10:33:07;;;;;;;3.08;0.73;;;;;;;15.43;91.08;99758.41;5249710;28;20117;-76
2023/10/22 10:35:46;;;;;;;3.85;0.70;;;;;;;15.53;90.97;99766.50;5251795;28;20084;-76
2023/10/22 10:38:17;;;;;;;3.13;0.63;;;;;;;15.49;91.79;99765.88;5249949;28;20043;-76
2023/10/22 10:40:53;;;;;;;7.10;0.70;;;;;;;15.32;91.94;99765.34;5242729;28;20412;-72
2023/10/22 10:44:02;;;;;;;4.65;0.70;;;;;;;15.30;91.45;99770.72;5246099;28;20024;-73
2023/10/22 10:46:33;;;;;;;4.13;0.77;;;;;;;15.28;92.16;99767.31;5245870;28;20039;-76
2023/10/22 10:49:03;;;;;;;2.72;0.77;;;;;;;15.29;92.73;99771.66;5250390;28;20403;-72
2023/10/22 10:51:34;;;;;;;3.58;0.57;;;;;;;15.22;91.58;99774.78;5241807;28;20033;-76
2023/10/22 10:54:04;;;;;;;1.60;0.80;;;;;;;15.40;92.77;99771.75;5237368;28;20040;-73
2023/10/22 10:57:04;;;;;;;2.15;0.60;;;;;;;15.38;91.38;99786.81;5245721;28;20028;-75
2023/10/22 10:59:36;;;;;;;3.33;0.82;;;;;;;15.56;92.69;99782.94;5231336;28;20040;-74
2023/10/22 11:02:10;;;;;;;2.03;0.40;;;;;;;15.62;92.57;99786.94;5244790;28;20032;-72
2023/10/22 11:04:46;;;;;;;1.52;0.60;;;;;;;15.64;92.39;99785.03;5253011;28;20025;-75
2023/10/22 11:07:19;;;;;;;2.85;0.57;;;;;;;15.78;92.69;99788.44;5246663;28;20037;-72
2023/10/22 11:09:49;;;;;;;2.05;0.55;;;;;;;15.79;89.97;99789.25;5243366;28;20263;-75
2023/10/22 11:12:21;;;;;;;3.05;0.50;;;;;;;15.73;90.91;99785.25;5244636;28;20024;-73
2023/10/22 11:14:55;;;;;;;4.32;0.70;;;;;;;15.96;91.45;99792.44;5244382;28;20058;-74
2023/10/22 11:17:26;;;;;;;2.60;0.90;;;;;;;15.89;92.35;99787.69;5241067;28;20016;-73
2023/10/22 11:19:57;;;;;;;2.67;0.90;;;;;;;16.24;93.01;99792.16;5249490;28;20032;-76
2023/10/22 11:22:28;;;;;;;7.45;0.90;;;;;;;16.40;90.61;99797.22;5251165;28;20069;-75
2023/10/22 11:25:01;;;;;;;3.30;0.90;;;;;;;16.56;90.18;99790.72;5245392;28;20028;-74
2023/10/22 11:27:32;;;;;;;2.53;0.80;;;;;;;16.80;88.26;99799.50;5251788;28;20048;-77
2023/10/22 11:30:03;;;;;;;4.43;0.70;;;;;;;16.86;87.02;99802.56;5246444;28;20588;-75
2023/10/22 11:32:35;;;;;;;3.67;0.70;;;;;;;17.00;87.78;99809.44;5250764;28;20377;-78
2023/10/22 11:35:07;;;;;;;3.08;0.77;;;;;;;16.94;87.96;99815.19;5233594;28;20045;-75
2023/10/22 11:37:41;;;;;;;2.65;0.57;;;;;;;17.16;87.08;99815.28;5247868;28;20207;-75
2023/10/22 11:40:30;;;;;;;2.13;0.63;;;;;;;17.21;87.12;99798.13;5241123;28;20359;-76
2023/10/22 11:43:05;;;;;;;4.60;0.80;;;;;;;17.24;87.14;99812.88;5239596;28;20465;-74
2023/10/22 11:45:35;;;;;;;4.68;1.02;;;;;;;17.35;85.14;99815.63;5219120;28;20078;-75
2023/10/22 11:48:17;;;;;;;3.95;0.50;;;;;;;17.27;85.66;99817.94;5224159;28;20537;-74
2023/10/22 11:51:01;;;;;;;3.30;0.63;;;;;;;17.20;86.31;99822.00;5238932;28;20706;-73
2023/10/22 11:53:42;;;;;;;2.78;0.50;;;;;;;16.83;86.36;99828.31;5238961;28;20258;-76